Time;durP1;ratioP1;P1;durP2;ratioP2;P2;SDS_P1;SDS_P2;PMS_P1;PMS_P2;Temp;Humidity;BMP_temperature;BMP_pressure;BME280_temperature;BME280_humidity;BME280_pressure;Samples;Min_cycle;Max_cycle;Signal;HPM_P1;HPM_P2
2022/12/03 00:02:15;;;;;;;6.42;3.52;;;;;;;;;;1744183;80;21634;-69
2022/12/03 00:04:42;;;;;;;5.40;3.45;;;;;;;;;;1785816;79;21538;-68
2022/12/03 00:07:09;;;;;;;9.35;3.90;;;;;;;;;;1782025;78;21079;-69
2022/12/03 00:09:35;;;;;;;7.75;4.00;;;;;;;;;;1737168;80;21060;-69
2022/12/03 00:12:01;;;;;;;6.28;3.85;;;;;;;;;;1772899;80;21058;-69
2022/12/03 00:14:28;;;;;;;6.25;3.52;;;;;;;;;;1768286;80;21099;-68
2022/12/03 00:16:54;;;;;;;7.15;3.22;;;;;;;;;;1769737;80;21020;-68
2022/12/03 00:19:20;;;;;;;6.22;3.72;;;;;;;;;;1764797;79;21040;-69
2022/12/03 00:21:47;;;;;;;9.18;4.00;;;;;;;;;;1759562;80;21071;-69
2022/12/03 00:24:13;;;;;;;5.83;3.40;;;;;;;;;;1759097;80;21332;-68
2022/12/03 00:26:39;;;;;;;7.92;3.45;;;;;;;;;;1767409;80;21063;-68
2022/12/03 00:29:05;;;;;;;6.10;3.65;;;;;;;;;;1772661;79;21069;-68
2022/12/03 00:31:31;;;;;;;6.90;3.65;;;;;;;;;;1770510;80;21040;-68
2022/12/03 00:33:58;;;;;;;6.85;3.27;;;;;;;;;;1763180;80;21036;-68
2022/12/03 00:36:24;;;;;;;7.30;3.12;;;;;;;;;;1757585;78;22161;-68
2022/12/03 00:38:52;;;;;;;6.55;3.55;;;;;;;;;;1750166;79;21080;-68
2022/12/03 00:41:18;;;;;;;6.33;3.65;;;;;;;;;;1744837;80;21022;-68
2022/12/03 00:43:45;;;;;;;8.45;3.83;;;;;;;;;;1757592;78;21058;-68
2022/12/03 00:46:12;;;;;;;9.65;4.03;;;;;;;;;;1773097;79;21006;-68
2022/12/03 00:48:38;;;;;;;7.17;3.65;;;;;;;;;;1782662;79;21083;-68
2022/12/03 00:51:04;;;;;;;6.03;3.30;;;;;;;;;;1775561;79;21039;-68
2022/12/03 00:53:30;;;;;;;6.72;3.02;;;;;;;;;;1772409;80;21111;-68
2022/12/03 00:55:56;;;;;;;7.47;3.22;;;;;;;;;;1773756;79;21062;-68
2022/12/03 00:58:24;;;;;;;8.88;3.70;;;;;;;;;;1735568;80;21073;-68
2022/12/03 01:00:50;;;;;;;6.03;3.40;;;;;;;;;;1748867;81;21044;-69
2022/12/03 01:03:16;;;;;;;9.33;3.80;;;;;;;;;;1757489;80;21496;-68
2022/12/03 01:05:42;;;;;;;7.17;3.67;;;;;;;;;;1761254;80;21121;-68
2022/12/03 01:08:09;;;;;;;7.22;3.87;;;;;;;;;;1766316;79;21049;-67
2022/12/03 01:10:35;;;;;;;7.33;3.70;;;;;;;;;;1756476;80;21060;-68
2022/12/03 01:13:02;;;;;;;6.40;3.08;;;;;;;;;;1751037;79;21623;-68
2022/12/03 01:15:28;;;;;;;5.80;3.02;;;;;;;;;;1742360;79;21048;-68
2022/12/03 01:17:55;;;;;;;5.85;3.40;;;;;;;;;;1782840;79;21587;-68
2022/12/03 01:20:21;;;;;;;5.83;3.80;;;;;;;;;;1778807;79;21050;-68
2022/12/03 01:22:47;;;;;;;6.17;3.50;;;;;;;;;;1778143;78;21048;-68
2022/12/03 01:25:13;;;;;;;7.80;3.33;;;;;;;;;;1757652;80;21211;-69
2022/12/03 01:27:40;;;;;;;5.55;3.10;;;;;;;;;;1758325;80;21067;-68
2022/12/03 01:30:07;;;;;;;5.50;2.98;;;;;;;;;;1749073;80;21509;-69
2022/12/03 01:32:33;;;;;;;11.15;3.80;;;;;;;;;;1748495;81;21276;-68
2022/12/03 01:34:59;;;;;;;4.85;3.33;;;;;;;;;;1780371;80;21047;-68
2022/12/03 01:37:25;;;;;;;6.70;3.50;;;;;;;;;;1769362;79;22183;-68
2022/12/03 01:39:51;;;;;;;5.33;3.77;;;;;;;;;;1777031;79;21511;-68
2022/12/03 01:42:22;;;;;;;8.23;4.17;;;;;;;;;;1746698;79;22251;-67
2022/12/03 01:44:52;;;;;;;10.38;4.00;;;;;;;;;;1771826;78;22413;-67
2022/12/03 01:47:20;;;;;;;7.30;3.20;;;;;;;;;;1770088;79;21090;-67
2022/12/03 01:49:57;;;;;;;7.47;3.77;;;;;;;;;;1780927;79;21064;-68
2022/12/03 01:52:25;;;;;;;7.30;3.65;;;;;;;;;;1763811;80;21060;-68
2022/12/03 01:54:53;;;;;;;6.47;3.58;;;;;;;;;;1762149;80;21578;-68
2022/12/03 01:57:21;;;;;;;7.70;3.52;;;;;;;;;;1765934;79;21004;-67
2022/12/03 01:59:47;;;;;;;5.65;3.30;;;;;;;;;;1767814;80;21081;-68
2022/12/03 02:05:04;;;;;;;5.65;2.75;;;;;;;;;;1769960;76;80207;-67
2022/12/03 02:07:33;;;;;;;5.92;3.00;;;;;;;;;;1773048;79;21110;-67
2022/12/03 02:10:01;;;;;;;5.90;2.65;;;;;;;;;;1742327;79;21046;-67
2022/12/03 02:12:29;;;;;;;7.50;3.35;;;;;;;;;;1773614;81;21044;-67
2022/12/03 02:14:55;;;;;;;7.55;3.33;;;;;;;;;;1769629;80;20982;-67
2022/12/03 02:17:21;;;;;;;5.33;3.10;;;;;;;;;;1771339;81;21165;-67
2022/12/03 02:19:47;;;;;;;5.42;3.10;;;;;;;;;;1758793;80;21032;-67
2022/12/03 02:22:24;;;;;;;6.05;3.47;;;;;;;;;;1753433;80;22109;-67
2022/12/03 02:25:10;;;;;;;6.30;3.35;;;;;;;;;;1768864;80;21044;-67
2022/12/03 02:27:36;;;;;;;6.00;3.05;;;;;;;;;;1772980;81;21534;-67
2022/12/03 02:30:03;;;;;;;7.58;3.42;;;;;;;;;;1765390;80;21020;-68
2022/12/03 02:32:30;;;;;;;5.83;3.10;;;;;;;;;;1765028;80;21011;-67
2022/12/03 02:34:56;;;;;;;7.65;3.40;;;;;;;;;;1749604;80;21004;-68
2022/12/03 02:37:23;;;;;;;5.17;3.20;;;;;;;;;;1773495;80;21749;-68
2022/12/03 02:39:50;;;;;;;7.08;2.92;;;;;;;;;;1771520;80;21000;-67
2022/12/03 02:42:35;;;;;;;4.50;2.72;;;;;;;;;;1783897;80;21039;-67
2022/12/03 02:45:03;;;;;;;5.97;3.95;;;;;;;;;;1777080;80;21036;-66
2022/12/03 02:47:30;;;;;;;7.30;3.47;;;;;;;;;;1767892;81;21100;-66
2022/12/03 02:49:56;;;;;;;4.58;2.75;;;;;;;;;;1772891;81;21013;-66
2022/12/03 02:52:23;;;;;;;6.67;2.92;;;;;;;;;;1772116;80;21631;-67
2022/12/03 02:54:49;;;;;;;6.10;3.42;;;;;;;;;;1767839;80;21811;-66
2022/12/03 02:57:15;;;;;;;6.33;3.20;;;;;;;;;;1774808;80;21064;-66
2022/12/03 02:59:44;;;;;;;7.53;3.10;;;;;;;;;;1754327;80;20993;-67
2022/12/03 06:16:27;;;;;;;7.53;4.03;;;;;;;;;;1827987;77;28028;-66
2022/12/03 06:18:53;;;;;;;7.25;4.03;;;;;;;;;;1796094;79;21057;-68
2022/12/03 06:21:20;;;;;;;9.13;4.05;;;;;;;;;;1773057;80;20980;-69
2022/12/03 06:23:46;;;;;;;9.58;4.30;;;;;;;;;;1776873;80;21048;-68
2022/12/03 06:26:12;;;;;;;4.95;3.58;;;;;;;;;;1756911;80;21098;-67
2022/12/03 06:28:39;;;;;;;8.68;3.77;;;;;;;;;;1767038;80;21047;-66
2022/12/03 06:31:05;;;;;;;9.58;4.40;;;;;;;;;;1779648;80;21043;-66
2022/12/03 06:33:31;;;;;;;7.45;3.75;;;;;;;;;;1772988;80;21534;-67
2022/12/03 06:35:58;;;;;;;11.33;5.03;;;;;;;;;;1779854;80;21016;-69
2022/12/03 06:38:24;;;;;;;9.05;4.15;;;;;;;;;;1767731;81;21048;-67
2022/12/03 06:40:50;;;;;;;8.18;4.50;;;;;;;;;;1769350;80;21027;-67
2022/12/03 06:43:16;;;;;;;8.35;3.80;;;;;;;;;;1765202;80;21083;-68
2022/12/03 06:45:42;;;;;;;9.35;4.60;;;;;;;;;;1765855;80;22143;-68
2022/12/03 06:48:08;;;;;;;8.98;3.70;;;;;;;;;;1779564;80;21607;-68
2022/12/03 06:50:35;;;;;;;8.40;4.25;;;;;;;;;;1763515;80;21095;-68
2022/12/03 06:53:01;;;;;;;12.58;5.35;;;;;;;;;;1766338;80;21488;-68
2022/12/03 06:55:26;;;;;;;8.73;4.92;;;;;;;;;;1796303;79;21085;-68
2022/12/03 06:57:52;;;;;;;10.72;5.10;;;;;;;;;;1803368;79;21487;-67
2022/12/03 07:00:20;;;;;;;10.50;4.95;;;;;;;;;;1773785;80;21058;-67
2022/12/03 07:02:46;;;;;;;8.98;4.65;;;;;;;;;;1748154;80;21064;-67
2022/12/03 07:05:12;;;;;;;13.98;5.47;;;;;;;;;;1768886;80;21123;-66
2022/12/03 07:07:38;;;;;;;10.82;4.42;;;;;;;;;;1798533;80;21491;-66
2022/12/03 07:10:05;;;;;;;10.58;4.95;;;;;;;;;;1767628;80;22227;-67
2022/12/03 07:12:31;;;;;;;8.75;4.03;;;;;;;;;;1765174;80;21538;-67
2022/12/03 07:14:58;;;;;;;8.60;4.87;;;;;;;;;;1755884;80;21052;-67
2022/12/03 07:17:24;;;;;;;11.73;4.83;;;;;;;;;;1806766;78;21044;-67
2022/12/03 07:19:51;;;;;;;13.48;5.75;;;;;;;;;;1813111;78;21036;-67
2022/12/03 07:22:17;;;;;;;10.93;5.03;;;;;;;;;;1793708;78;20997;-67
2022/12/03 07:24:43;;;;;;;9.90;4.53;;;;;;;;;;1751601;82;21013;-67
2022/12/03 07:27:10;;;;;;;11.43;5.33;;;;;;;;;;1756683;81;21014;-67
2022/12/03 07:29:36;;;;;;;10.18;4.80;;;;;;;;;;1777344;79;21012;-67
2022/12/03 07:32:02;;;;;;;11.03;4.90;;;;;;;;;;1767255;80;21039;-67
2022/12/03 07:34:28;;;;;;;10.72;5.12;;;;;;;;;;1766151;80;21491;-67
2022/12/03 07:36:54;;;;;;;11.55;5.25;;;;;;;;;;1749627;80;21095;-67
2022/12/03 07:39:21;;;;;;;12.78;5.87;;;;;;;;;;1802100;78;21005;-67
2022/12/03 07:41:47;;;;;;;11.20;4.90;;;;;;;;;;1796832;78;21045;-66
2022/12/03 07:44:13;;;;;;;9.75;4.65;;;;;;;;;;1796055;79;20999;-67
2022/12/03 07:46:40;;;;;;;9.43;5.10;;;;;;;;;;1777108;80;21452;-67
2022/12/03 07:49:07;;;;;;;11.85;5.90;;;;;;;;;;1770894;80;21118;-75
2022/12/03 07:51:33;;;;;;;9.75;5.55;;;;;;;;;;1774377;80;21048;-75
2022/12/03 07:53:59;;;;;;;13.28;6.15;;;;;;;;;;1794872;79;21014;-75
2022/12/03 07:56:25;;;;;;;15.40;5.80;;;;;;;;;;1804714;79;21016;-75
2022/12/03 07:58:51;;;;;;;8.58;5.20;;;;;;;;;;1766285;81;21024;-74
2022/12/03 08:01:17;;;;;;;11.12;5.85;;;;;;;;;;1766386;79;21061;-74
2022/12/03 08:03:43;;;;;;;12.53;5.22;;;;;;;;;;1794852;79;21454;-74
2022/12/03 08:06:09;;;;;;;12.13;5.47;;;;;;;;;;1791341;79;21096;-74
2022/12/03 08:08:36;;;;;;;9.85;5.20;;;;;;;;;;1786579;79;21110;-73
2022/12/03 08:11:02;;;;;;;11.63;5.45;;;;;;;;;;1759346;79;21051;-76
2022/12/03 08:13:28;;;;;;;8.68;4.50;;;;;;;;;;1777914;80;21495;-75
2022/12/03 08:15:55;;;;;;;10.72;5.60;;;;;;;;;;1784591;79;21059;-75
2022/12/03 08:18:21;;;;;;;11.60;4.92;;;;;;;;;;1745014;80;21078;-77
2022/12/03 08:20:48;;;;;;;12.37;6.10;;;;;;;;;;1764608;80;21035;-75
2022/12/03 08:23:15;;;;;;;11.00;5.87;;;;;;;;;;1775745;79;20992;-77
2022/12/03 08:25:42;;;;;;;10.75;5.22;;;;;;;;;;1756497;80;21040;-78
2022/12/03 08:28:12;;;;;;;10.70;5.17;;;;;;;;;;1759029;79;21071;-78
2022/12/03 08:30:40;;;;;;;12.43;5.45;;;;;;;;;;1765250;79;21034;-77
2022/12/03 08:33:11;;;;;;;10.82;5.10;;;;;;;;;;1771440;79;21507;-77
2022/12/03 08:35:37;;;;;;;11.00;5.10;;;;;;;;;;1744363;80;21439;-78
2022/12/03 08:38:10;;;;;;;9.05;5.15;;;;;;;;;;1755187;80;22653;-78
2022/12/03 08:40:39;;;;;;;10.78;5.25;;;;;;;;;;1754573;79;21031;-78
2022/12/03 08:43:07;;;;;;;10.05;5.15;;;;;;;;;;1756957;81;21047;-78
2022/12/03 08:45:38;;;;;;;11.53;5.28;;;;;;;;;;1755392;80;21525;-77
2022/12/03 08:48:22;;;;;;;10.03;5.08;;;;;;;;;;1754957;81;20982;-76
2022/12/03 08:50:48;;;;;;;8.78;4.47;;;;;;;;;;1755917;80;21717;-76
2022/12/03 08:53:25;;;;;;;11.93;5.28;;;;;;;;;;1752776;81;21010;-75
2022/12/03 08:55:52;;;;;;;11.00;5.45;;;;;;;;;;1756300;81;21037;-75
2022/12/03 08:58:26;;;;;;;10.75;5.22;;;;;;;;;;1754670;81;21013;-75
2022/12/03 09:00:56;;;;;;;12.28;5.30;;;;;;;;;;1756369;79;22151;-76
2022/12/03 09:03:23;;;;;;;9.85;4.80;;;;;;;;;;1754175;79;21073;-75
2022/12/03 09:05:49;;;;;;;12.40;5.53;;;;;;;;;;1753473;81;21396;-77
2022/12/03 09:08:15;;;;;;;7.90;4.78;;;;;;;;;;1757435;81;21063;-76
2022/12/03 09:10:41;;;;;;;9.20;5.40;;;;;;;;;;1757103;81;21051;-76
2022/12/03 09:13:07;;;;;;;11.33;4.90;;;;;;;;;;1753610;80;21032;-76
2022/12/03 09:15:33;;;;;;;10.32;4.97;;;;;;;;;;1756719;81;21057;-76
2022/12/03 09:17:59;;;;;;;11.50;5.30;;;;;;;;;;1754974;81;21039;-76
2022/12/03 09:20:25;;;;;;;8.00;4.78;;;;;;;;;;1755477;80;21517;-76
2022/12/03 09:22:51;;;;;;;13.13;5.58;;;;;;;;;;1753931;80;21550;-76
2022/12/03 09:25:17;;;;;;;11.43;5.87;;;;;;;;;;1755145;80;21039;-76
2022/12/03 09:27:43;;;;;;;11.43;5.72;;;;;;;;;;1790888;79;21019;-78
2022/12/03 09:30:10;;;;;;;13.45;6.65;;;;;;;;;;1754094;80;21013;-77
2022/12/03 09:32:36;;;;;;;15.58;6.67;;;;;;;;;;1756328;79;22600;-75
2022/12/03 09:35:02;;;;;;;15.75;6.45;;;;;;;;;;1758941;80;21650;-76
2022/12/03 09:37:28;;;;;;;13.48;5.90;;;;;;;;;;1754841;80;21021;-78
2022/12/03 09:39:54;;;;;;;11.25;5.60;;;;;;;;;;1755644;79;21012;-78
2022/12/03 09:42:20;;;;;;;15.30;5.47;;;;;;;;;;1756136;80;21493;-77
2022/12/03 09:44:46;;;;;;;14.55;6.20;;;;;;;;;;1751834;80;21088;-77
2022/12/03 09:47:12;;;;;;;14.55;6.12;;;;;;;;;;1753206;81;20996;-77
2022/12/03 09:49:39;;;;;;;11.20;4.58;;;;;;;;;;1782190;79;21018;-77
2022/12/03 09:52:05;;;;;;;13.55;5.92;;;;;;;;;;1748918;80;21104;-76
2022/12/03 09:54:31;;;;;;;11.90;5.70;;;;;;;;;;1752955;79;21029;-76
2022/12/03 09:56:58;;;;;;;10.05;5.05;;;;;;;;;;1750026;81;20997;-76
2022/12/03 09:59:25;;;;;;;14.10;5.97;;;;;;;;;;1755044;80;21051;-77
2022/12/03 10:01:53;;;;;;;13.08;6.78;;;;;;;;;;1748713;80;20996;-76
2022/12/03 10:04:19;;;;;;;13.13;6.20;;;;;;;;;;1745872;80;21817;-76
2022/12/03 10:06:45;;;;;;;14.40;6.22;;;;;;;;;;1767153;80;21016;-76
2022/12/03 10:09:11;;;;;;;12.33;5.78;;;;;;;;;;1768338;79;21503;-76
2022/12/03 10:11:37;;;;;;;13.32;5.87;;;;;;;;;;1754745;79;21048;-76
2022/12/03 10:14:03;;;;;;;10.78;5.58;;;;;;;;;;1751861;81;21091;-76
2022/12/03 10:16:29;;;;;;;11.05;5.65;;;;;;;;;;1755411;81;21586;-77
2022/12/03 10:18:56;;;;;;;12.82;6.10;;;;;;;;;;1755777;79;20996;-76
2022/12/03 10:21:24;;;;;;;11.93;6.35;;;;;;;;;;1757256;81;21548;-76
2022/12/03 10:24:09;;;;;;;14.03;6.50;;;;;;;;;;1755913;81;21614;-76
2022/12/03 10:26:38;;;;;;;11.33;6.20;;;;;;;;;;1759009;81;22063;-76
2022/12/03 10:29:06;;;;;;;12.55;5.78;;;;;;;;;;1754988;79;21016;-76
2022/12/03 10:31:35;;;;;;;16.00;6.05;;;;;;;;;;1784254;79;21098;-76
2022/12/03 10:34:01;;;;;;;14.70;6.45;;;;;;;;;;1784904;79;21043;-76
2022/12/03 10:36:28;;;;;;;12.55;5.62;;;;;;;;;;1751948;81;21075;-76
2022/12/03 10:39:08;;;;;;;13.35;6.35;;;;;;;;;;1786957;79;20988;-75
2022/12/03 10:41:34;;;;;;;14.00;6.15;;;;;;;;;;1781511;79;22371;-76
2022/12/03 10:44:08;;;;;;;11.90;5.17;;;;;;;;;;1781293;79;21043;-76
2022/12/03 10:46:34;;;;;;;;;;;;;;;;;;1763817;79;21535;-83
2022/12/03 10:49:07;;;;;;;15.38;7.47;;;;;;;;;;1765346;79;20234;-76
2022/12/03 10:51:33;;;;;;;12.25;5.92;;;;;;;;;;1778463;79;21334;-76
2022/12/03 10:53:59;;;;;;;13.95;6.20;;;;;;;;;;1781926;78;21024;-77
2022/12/03 10:56:25;;;;;;;14.40;6.00;;;;;;;;;;1738231;80;21088;-76
2022/12/03 10:58:51;;;;;;;13.25;5.25;;;;;;;;;;1786345;79;20995;-75
2022/12/03 11:01:18;;;;;;;11.20;5.33;;;;;;;;;;1785190;79;21035;-77
2022/12/03 11:03:44;;;;;;;11.53;5.55;;;;;;;;;;1785436;78;21484;-76
2022/12/03 11:06:12;;;;;;;10.00;4.97;;;;;;;;;;1768144;79;21441;-79
2022/12/03 11:21:31;;;;;;;15.08;7.67;;;;;;;;;;1817008;77;22216;-68
2022/12/03 11:23:59;;;;;;;9.63;5.45;;;;;;;;;;1770211;80;20969;-67
2022/12/03 11:26:30;;;;;;;10.20;4.80;;;;;;;;;;1774082;79;22110;-68
2022/12/03 11:28:57;;;;;;;11.30;6.95;;;;;;;;;;1777908;80;21079;-68
2022/12/03 11:31:27;;;;;;;12.88;6.97;;;;;;;;;;1776929;79;21036;-68
2022/12/03 11:33:55;;;;;;;12.68;5.95;;;;;;;;;;1745984;79;21036;-68
2022/12/03 11:36:21;;;;;;;10.55;6.28;;;;;;;;;;1778398;79;21539;-68
2022/12/03 11:38:49;;;;;;;12.73;6.25;;;;;;;;;;1774276;80;21523;-67
2022/12/03 11:41:20;;;;;;;9.80;6.20;;;;;;;;;;1786081;79;21325;-68
2022/12/03 11:43:55;;;;;;;9.78;5.58;;;;;;;;;;1781391;79;21068;-67
2022/12/03 11:46:26;;;;;;;11.97;5.53;;;;;;;;;;1786919;79;21043;-67
2022/12/03 11:48:52;;;;;;;10.32;5.42;;;;;;;;;;1773175;79;21047;-67
2022/12/03 11:51:19;;;;;;;12.75;5.97;;;;;;;;;;1769618;79;21052;-67
2022/12/03 11:53:45;;;;;;;10.35;6.37;;;;;;;;;;1778430;79;20989;-67
2022/12/03 11:56:15;;;;;;;10.58;6.35;;;;;;;;;;1777782;79;21265;-67
2022/12/03 11:58:41;;;;;;;10.48;5.65;;;;;;;;;;1781450;79;21016;-69
2022/12/03 12:01:07;;;;;;;9.83;5.03;;;;;;;;;;1779578;79;20993;-68
2022/12/03 12:03:35;;;;;;;9.00;5.00;;;;;;;;;;1774884;79;21246;-68
2022/12/03 12:06:08;;;;;;;11.80;5.30;;;;;;;;;;1736656;81;21013;-69
2022/12/03 12:08:35;;;;;;;13.83;4.83;;;;;;;;;;1754800;81;21075;-69
2022/12/03 12:11:01;;;;;;;11.60;5.67;;;;;;;;;;1738516;81;21033;-69
2022/12/03 12:13:28;;;;;;;10.38;5.35;;;;;;;;;;1717418;82;21053;-68
2022/12/03 12:15:57;;;;;;;9.75;5.58;;;;;;;;;;1741278;82;21401;-69
2022/12/03 12:18:40;;;;;;;9.88;5.25;;;;;;;;;;1738038;81;21013;-68
2022/12/03 12:21:24;;;;;;;7.85;5.12;;;;;;;;;;1735534;81;21064;-68
2022/12/03 12:23:50;;;;;;;9.23;4.65;;;;;;;;;;1736736;81;20966;-68
2022/12/03 12:26:17;;;;;;;11.18;4.90;;;;;;;;;;1721761;82;21513;-68
2022/12/03 12:28:43;;;;;;;11.38;5.10;;;;;;;;;;1736259;81;20993;-68
2022/12/03 12:31:10;;;;;;;13.20;6.35;;;;;;;;;;1724862;82;21044;-76
2022/12/03 12:33:37;;;;;;;10.60;5.00;;;;;;;;;;1713849;83;20967;-73
2022/12/03 12:36:09;;;;;;;9.80;5.17;;;;;;;;;;1766938;80;20970;-76
2022/12/03 15:41:19;;;;;;;19.02;8.25;;;;;;;;;;1761692;80;28291;-80
2022/12/03 15:43:27;;;;;;;17.10;9.03;;;;;;;;;;1730871;83;21567;-80
2022/12/03 15:45:54;;;;;;;24.67;11.05;;;;;;;;;;1734151;82;21035;-80
2022/12/03 15:48:21;;;;;;;14.33;8.35;;;;;;;;;;1731906;83;21527;-80
2022/12/03 15:50:47;;;;;;;12.75;6.75;;;;;;;;;;1731785;83;21614;-81
2022/12/03 15:53:15;;;;;;;16.95;8.15;;;;;;;;;;1732069;83;21012;-81
2022/12/03 15:55:41;;;;;;;18.25;8.25;;;;;;;;;;1731845;83;22400;-82
2022/12/03 15:58:07;;;;;;;11.93;6.55;;;;;;;;;;1731908;83;21147;-81
2022/12/03 16:00:33;;;;;;;12.13;6.75;;;;;;;;;;1731830;81;21035;-84
2022/12/03 16:02:59;;;;;;;15.35;7.55;;;;;;;;;;1731831;83;21581;-82
2022/12/03 16:05:25;;;;;;;18.00;7.20;;;;;;;;;;1731886;83;21012;-81
2022/12/03 16:07:53;;;;;;;12.05;6.03;;;;;;;;;;1731732;82;21042;-82
2022/12/03 16:10:20;;;;;;;14.87;7.10;;;;;;;;;;1731717;83;21051;-81
2022/12/03 16:12:46;;;;;;;19.98;8.63;;;;;;;;;;1731716;81;21074;-82
2022/12/03 16:15:12;;;;;;;15.88;6.85;;;;;;;;;;1731972;83;21518;-81
2022/12/03 16:17:38;;;;;;;11.30;6.28;;;;;;;;;;1731819;83;21545;-83
2022/12/03 16:20:05;;;;;;;14.55;7.65;;;;;;;;;;1731950;83;21569;-81
2022/12/03 16:22:31;;;;;;;11.00;6.15;;;;;;;;;;1731750;81;20998;-82
2022/12/03 16:24:57;;;;;;;16.82;6.95;;;;;;;;;;1731852;83;21570;-84
2022/12/03 16:27:23;;;;;;;18.92;8.38;;;;;;;;;;1731613;81;21090;-81
2022/12/03 16:29:49;;;;;;;14.20;6.50;;;;;;;;;;1731661;83;21055;-82
2022/12/03 16:32:15;;;;;;;13.72;6.62;;;;;;;;;;1702157;83;21059;-81
2022/12/03 16:34:41;;;;;;;14.55;6.10;;;;;;;;;;1701048;84;21059;-82
2022/12/03 16:37:09;;;;;;;14.70;6.03;;;;;;;;;;1701075;84;20992;-81
2022/12/03 16:39:38;;;;;;;9.98;4.60;;;;;;;;;;1699482;84;21028;-83
2022/12/03 16:42:07;;;;;;;9.38;4.95;;;;;;;;;;1694896;84;21096;-82
2022/12/03 16:45:03;;;;;;;13.05;6.62;;;;;;;;;;1695359;84;21566;-82
2022/12/03 16:47:01;;;;;;;9.70;4.53;;;;;;;;;;1717041;83;21048;-83
2022/12/03 16:49:27;;;;;;;8.63;4.53;;;;;;;;;;1720982;83;21114;-83
2022/12/03 16:51:53;;;;;;;9.13;4.42;;;;;;;;;;1720931;83;21039;-83
2022/12/03 16:54:19;;;;;;;8.40;4.92;;;;;;;;;;1721033;83;21563;-82
2022/12/03 16:56:45;;;;;;;8.65;5.12;;;;;;;;;;1720631;83;21586;-82
2022/12/03 16:59:11;;;;;;;13.22;5.65;;;;;;;;;;1721122;83;21051;-83
2022/12/03 17:01:37;;;;;;;10.45;4.62;;;;;;;;;;1720918;82;21028;-83
2022/12/03 17:04:04;;;;;;;9.58;5.00;;;;;;;;;;1703245;83;21083;-81
2022/12/03 17:06:30;;;;;;;8.40;4.58;;;;;;;;;;1703148;84;21075;-82
2022/12/03 17:08:56;;;;;;;10.63;4.45;;;;;;;;;;1703601;84;21096;-82
2022/12/03 17:11:22;;;;;;;7.30;4.12;;;;;;;;;;1703352;84;22294;-82
2022/12/03 17:13:48;;;;;;;8.73;4.60;;;;;;;;;;1703423;84;21646;-81
2022/12/03 17:16:14;;;;;;;6.97;4.30;;;;;;;;;;1703294;84;21055;-81
2022/12/03 17:18:40;;;;;;;8.05;4.20;;;;;;;;;;1703360;84;21316;-82
2022/12/03 17:21:06;;;;;;;6.90;4.08;;;;;;;;;;1703359;84;21668;-82
2022/12/03 17:23:32;;;;;;;7.50;3.98;;;;;;;;;;1703471;83;21055;-81
2022/12/03 17:25:58;;;;;;;7.10;3.72;;;;;;;;;;1703287;84;21039;-85
2022/12/03 17:28:24;;;;;;;10.85;4.67;;;;;;;;;;1703313;84;21035;-81
2022/12/03 17:30:50;;;;;;;8.95;4.50;;;;;;;;;;1703467;83;21621;-81
2022/12/03 17:33:16;;;;;;;6.85;3.80;;;;;;;;;;1703436;84;21106;-82
2022/12/03 17:35:44;;;;;;;7.50;4.35;;;;;;;;;;1703551;84;21672;-82
2022/12/03 17:38:10;;;;;;;10.20;5.17;;;;;;;;;;1703332;84;21055;-82
2022/12/03 17:40:36;;;;;;;10.68;4.85;;;;;;;;;;1703500;84;21673;-81
2022/12/03 17:43:02;;;;;;;8.78;4.80;;;;;;;;;;1703319;84;21692;-82
2022/12/03 17:45:29;;;;;;;9.15;5.10;;;;;;;;;;1703114;83;21004;-82
2022/12/03 17:47:55;;;;;;;10.58;5.03;;;;;;;;;;1703266;84;21094;-81
2022/12/03 17:50:21;;;;;;;9.50;4.45;;;;;;;;;;1703394;84;21031;-82
2022/12/03 17:52:46;;;;;;;7.35;3.83;;;;;;;;;;1703134;84;21083;-81
2022/12/03 17:55:12;;;;;;;8.15;4.60;;;;;;;;;;1703375;84;21091;-82
2022/12/03 17:57:38;;;;;;;6.97;3.80;;;;;;;;;;1703422;84;20980;-82
2022/12/03 18:00:05;;;;;;;7.75;4.12;;;;;;;;;;1703555;84;21007;-81
2022/12/03 18:02:34;;;;;;;33.18;10.88;;;;;;;;;;1703227;84;21011;-81
2022/12/03 18:04:59;;;;;;;13.20;5.30;;;;;;;;;;1704172;83;21043;-81
2022/12/03 18:07:25;;;;;;;8.00;4.62;;;;;;;;;;1703765;84;21051;-82
2022/12/03 18:09:51;;;;;;;8.90;4.15;;;;;;;;;;1703497;83;21055;-82
2022/12/03 18:12:19;;;;;;;11.50;5.55;;;;;;;;;;1703362;83;21553;-82
2022/12/03 18:14:45;;;;;;;10.90;5.17;;;;;;;;;;1703296;83;21039;-82
2022/12/03 18:17:12;;;;;;;17.95;8.58;;;;;;;;;;1703305;83;21110;-81
2022/12/03 18:19:38;;;;;;;10.55;5.15;;;;;;;;;;1703395;84;21031;-81
2022/12/03 18:22:04;;;;;;;12.78;6.12;;;;;;;;;;1703391;84;21008;-81
2022/12/03 18:24:30;;;;;;;18.07;7.42;;;;;;;;;;1703409;83;21024;-81
2022/12/03 18:26:56;;;;;;;11.38;5.25;;;;;;;;;;1703502;84;21167;-81
2022/12/03 18:29:22;;;;;;;10.60;4.78;;;;;;;;;;1703485;84;21039;-81
2022/12/03 18:31:48;;;;;;;9.25;4.60;;;;;;;;;;1702969;83;21083;-81
2022/12/03 18:34:14;;;;;;;14.78;6.65;;;;;;;;;;1703465;84;21055;-81
2022/12/03 19:23:07;;;;;;;10.13;6.50;;;;;;;;;;1812806;77;22773;-73
2022/12/03 19:25:33;;;;;;;12.70;6.17;;;;;;;;;;1789143;80;21012;-73
2022/12/03 19:27:59;;;;;;;11.97;5.22;;;;;;;;;;1785649;80;21019;-73
2022/12/03 19:30:25;;;;;;;10.98;5.47;;;;;;;;;;1779504;80;21092;-73
2022/12/03 19:32:52;;;;;;;11.43;5.00;;;;;;;;;;1787201;80;21008;-73
2022/12/03 19:35:20;;;;;;;8.45;4.95;;;;;;;;;;1786247;80;21048;-73
2022/12/03 19:37:46;;;;;;;10.68;5.00;;;;;;;;;;1783492;80;21049;-73
2022/12/03 19:40:13;;;;;;;9.83;5.62;;;;;;;;;;1790343;80;21036;-73
2022/12/03 19:42:39;;;;;;;11.25;5.72;;;;;;;;;;1790047;80;21016;-73
2022/12/03 19:45:07;;;;;;;12.75;6.03;;;;;;;;;;1786839;80;21016;-73
2022/12/03 19:47:34;;;;;;;11.00;5.35;;;;;;;;;;1788773;80;21013;-73
2022/12/03 19:50:03;;;;;;;11.10;4.97;;;;;;;;;;1789892;80;20965;-73
2022/12/03 19:52:29;;;;;;;11.25;4.83;;;;;;;;;;1784118;80;21003;-73
2022/12/03 20:01:08;;;;;;;8.15;4.92;;;;;;;;;;1698423;84;21659;-74
2022/12/03 20:03:36;;;;;;;9.68;5.55;;;;;;;;;;1699245;84;21120;-72
